Time;durP1;ratioP1;P1;durP2;ratioP2;P2;SDS_P1;SDS_P2;PMS_P1;PMS_P2;Temp;Humidity;BMP_temperature;BMP_pressure;BME280_temperature;BME280_humidity;BME280_pressure;Samples;Min_cycle;Max_cycle;Signal;HPM_P1;HPM_P2
2022/01/09 00:01:04;;;;;;;9.77;6.20;;;;;;;;;;5073369;28;20039;-62
2022/01/09 00:03:30;;;;;;;11.25;6.45;;;;;;;;;;5073843;28;20040;-69
2022/01/09 00:05:56;;;;;;;14.10;7.28;;;;;;;;;;5073277;28;20044;-62
2022/01/09 00:08:22;;;;;;;10.63;6.32;;;;;;;;;;5073208;28;20393;-69
2022/01/09 00:10:50;;;;;;;10.98;6.88;;;;;;;;;;5073169;28;20033;-64
2022/01/09 00:13:16;;;;;;;11.50;6.75;;;;;;;;;;5072933;28;20350;-72
2022/01/09 00:15:43;;;;;;;9.43;6.10;;;;;;;;;;5072848;28;20037;-68
2022/01/09 00:18:09;;;;;;;9.60;5.82;;;;;;;;;;5071387;28;20028;-62
2022/01/09 00:20:35;;;;;;;12.20;6.95;;;;;;;;;;5072067;28;20044;-72
2022/01/09 00:23:01;;;;;;;11.35;6.70;;;;;;;;;;5071844;28;20027;-74
2022/01/09 00:25:28;;;;;;;10.73;6.18;;;;;;;;;;5091677;28;20024;-72
2022/01/09 00:27:54;;;;;;;10.23;6.28;;;;;;;;;;5093124;28;20016;-74
2022/01/09 00:30:22;;;;;;;10.88;6.85;;;;;;;;;;5092940;28;20047;-72
2022/01/09 00:32:49;;;;;;;9.93;6.43;;;;;;;;;;5092890;28;20048;-75
2022/01/09 00:35:15;;;;;;;10.82;6.32;;;;;;;;;;5092247;28;20032;-72
2022/01/09 00:37:42;;;;;;;13.35;7.03;;;;;;;;;;5092018;28;20035;-75
2022/01/09 00:40:09;;;;;;;12.27;6.93;;;;;;;;;;5091229;28;20354;-68
2022/01/09 00:42:35;;;;;;;10.68;6.63;;;;;;;;;;5092615;28;20058;-74
2022/01/09 00:45:02;;;;;;;12.73;7.80;;;;;;;;;;5092288;28;20372;-77
2022/01/09 00:47:28;;;;;;;11.38;6.85;;;;;;;;;;5092529;28;20077;-75
2022/01/09 00:49:54;;;;;;;11.73;6.72;;;;;;;;;;5091416;28;20113;-75
2022/01/09 00:52:20;;;;;;;10.27;6.25;;;;;;;;;;5091611;28;20510;-73
2022/01/09 00:54:46;;;;;;;10.32;6.38;;;;;;;;;;5092254;28;20024;-73
2022/01/09 00:57:12;;;;;;;11.10;6.50;;;;;;;;;;5092416;28;20028;-71
2022/01/09 00:59:38;;;;;;;11.32;6.70;;;;;;;;;;5092684;28;20062;-76
2022/01/09 01:02:05;;;;;;;11.18;6.57;;;;;;;;;;5092786;28;20024;-73
2022/01/09 01:04:31;;;;;;;12.13;7.70;;;;;;;;;;5092618;28;20024;-74
2022/01/09 01:06:57;;;;;;;11.55;7.43;;;;;;;;;;5091036;28;20024;-73
2022/01/09 01:09:30;;;;;;;13.32;8.00;;;;;;;;;;5091288;28;20027;-76
2022/01/09 01:11:56;;;;;;;14.57;8.20;;;;;;;;;;5092263;28;20023;-70
2022/01/09 01:14:24;;;;;;;11.55;7.70;;;;;;;;;;5092171;28;20024;-75
2022/01/09 01:16:50;;;;;;;14.32;8.45;;;;;;;;;;5092388;28;20024;-75
2022/01/09 01:19:17;;;;;;;13.52;8.45;;;;;;;;;;5092439;28;20020;-71
2022/01/09 01:21:43;;;;;;;12.38;7.68;;;;;;;;;;5092185;28;20023;-63
2022/01/09 01:24:09;;;;;;;14.95;8.45;;;;;;;;;;5081589;28;20048;-66
2022/01/09 01:26:35;;;;;;;13.68;8.68;;;;;;;;;;5072482;28;20016;-70
2022/01/09 01:29:02;;;;;;;12.13;7.75;;;;;;;;;;5071634;28;20025;-68
2022/01/09 01:31:28;;;;;;;15.95;8.68;;;;;;;;;;5071843;28;20059;-71
2022/01/09 01:33:54;;;;;;;13.02;7.93;;;;;;;;;;5071454;28;20025;-73
2022/01/09 01:36:20;;;;;;;12.45;7.60;;;;;;;;;;5071243;28;20035;-72
2022/01/09 01:38:46;;;;;;;15.75;8.20;;;;;;;;;;5071368;28;20477;-76
2022/01/09 01:41:13;;;;;;;12.85;7.80;;;;;;;;;;5069877;28;20042;-76
2022/01/09 01:43:39;;;;;;;11.27;7.53;;;;;;;;;;5072001;28;20024;-75
2022/01/09 01:46:05;;;;;;;13.55;7.75;;;;;;;;;;5070042;28;20039;-71
2022/01/09 01:48:31;;;;;;;16.48;9.05;;;;;;;;;;5071202;28;20130;-73
2022/01/09 01:50:57;;;;;;;12.25;7.97;;;;;;;;;;5071197;28;20024;-66
2022/01/09 01:53:24;;;;;;;14.75;7.95;;;;;;;;;;5071307;28;20499;-65
2022/01/09 01:55:55;;;;;;;13.45;7.13;;;;;;;;;;5070927;28;20029;-72
2022/01/09 01:58:21;;;;;;;10.95;7.18;;;;;;;;;;5071349;28;20017;-69
2022/01/09 02:00:48;;;;;;;14.05;8.82;;;;;;;;;;5071711;28;20029;-68
2022/01/09 02:03:14;;;;;;;15.18;9.45;;;;;;;;;;5070929;28;20454;-72
2022/01/09 02:05:44;;;;;;;14.35;8.00;;;;;;;;;;5071029;28;20040;-73
2022/01/09 02:08:10;;;;;;;14.82;10.18;;;;;;;;;;5070856;28;20067;-75
2022/01/09 02:10:40;;;;;;;14.70;8.75;;;;;;;;;;5071182;28;20052;-69
2022/01/09 02:13:07;;;;;;;12.70;8.15;;;;;;;;;;5071116;28;20023;-64
2022/01/09 02:15:38;;;;;;;19.73;10.43;;;;;;;;;;5069643;28;20170;-75
2022/01/09 02:18:08;;;;;;;15.32;9.00;;;;;;;;;;5071845;28;20546;-73
2022/01/09 02:20:35;;;;;;;16.42;10.02;;;;;;;;;;5071037;28;20058;-73
2022/01/09 02:23:01;;;;;;;13.40;9.02;;;;;;;;;;5071327;28;20177;-68
2022/01/09 02:25:27;;;;;;;14.60;9.07;;;;;;;;;;5091135;28;20020;-75
2022/01/09 02:27:54;;;;;;;16.13;9.65;;;;;;;;;;5090875;28;20023;-70
2022/01/09 02:30:20;;;;;;;17.67;9.88;;;;;;;;;;5090875;28;20131;-73
2022/01/09 02:32:46;;;;;;;18.50;10.23;;;;;;;;;;5091039;28;20073;-69
2022/01/09 02:35:12;;;;;;;16.42;10.20;;;;;;;;;;5088403;28;20023;-63
2022/01/09 02:37:38;;;;;;;14.70;9.70;;;;;;;;;;5090878;28;20103;-67
2022/01/09 02:40:05;;;;;;;16.15;9.45;;;;;;;;;;5090857;28;20095;-72
2022/01/09 02:42:32;;;;;;;16.88;9.80;;;;;;;;;;5090958;28;20035;-71
2022/01/09 02:44:59;;;;;;;15.80;9.75;;;;;;;;;;5091208;28;20020;-65
2022/01/09 02:47:31;;;;;;;18.10;10.35;;;;;;;;;;5090836;28;20027;-68
2022/01/09 02:50:05;;;;;;;15.85;10.48;;;;;;;;;;5091276;28;20051;-62
2022/01/09 02:55:14;;;;;;;17.80;11.00;;;;;;;;;;5070731;28;20047;-62
2022/01/09 02:57:45;;;;;;;17.13;11.38;;;;;;;;;;5070762;28;20017;-71
2022/01/09 03:00:21;;;;;;;18.20;11.20;;;;;;;;;;5070889;28;20103;-76
2022/01/09 03:02:47;;;;;;;16.17;10.15;;;;;;;;;;5070789;28;20028;-68
2022/01/09 03:05:14;;;;;;;19.10;11.32;;;;;;;;;;5070851;28;20056;-75
2022/01/09 03:07:41;;;;;;;16.88;9.63;;;;;;;;;;5071695;28;20028;-75
2022/01/09 03:10:07;;;;;;;20.17;11.55;;;;;;;;;;5074620;28;20031;-75
2022/01/09 03:12:34;;;;;;;15.75;10.18;;;;;;;;;;5081271;28;20021;-72
2022/01/09 03:15:00;;;;;;;16.52;10.40;;;;;;;;;;5094693;28;20056;-73
2022/01/09 03:17:26;;;;;;;17.13;10.18;;;;;;;;;;5094575;28;20477;-69
2022/01/09 03:19:53;;;;;;;13.77;9.68;;;;;;;;;;5094883;28;20036;-68
2022/01/09 03:22:19;;;;;;;16.45;10.82;;;;;;;;;;5093404;28;20096;-73
2022/01/09 03:24:45;;;;;;;16.25;9.60;;;;;;;;;;5094587;28;20040;-68
2022/01/09 03:27:11;;;;;;;16.42;10.27;;;;;;;;;;5094605;28;20026;-69
2022/01/09 03:29:38;;;;;;;20.38;12.38;;;;;;;;;;5094434;28;20024;-74
2022/01/09 03:32:04;;;;;;;18.52;11.82;;;;;;;;;;5094419;28;20020;-73
2022/01/09 03:34:30;;;;;;;18.08;11.85;;;;;;;;;;5095146;28;20090;-65
2022/01/09 03:36:56;;;;;;;17.70;11.40;;;;;;;;;;5095449;28;20115;-69
2022/01/09 03:39:22;;;;;;;19.17;11.60;;;;;;;;;;5094284;28;20020;-68
2022/01/09 03:41:48;;;;;;;19.73;11.90;;;;;;;;;;5094214;28;20035;-75
2022/01/09 03:44:14;;;;;;;18.15;11.23;;;;;;;;;;5094194;28;20031;-75
2022/01/09 03:46:41;;;;;;;16.73;10.38;;;;;;;;;;5092911;28;20024;-67
2022/01/09 03:49:07;;;;;;;17.58;10.73;;;;;;;;;;5094097;28;20106;-73
2022/01/09 03:51:36;;;;;;;14.57;10.13;;;;;;;;;;5094011;28;20028;-74
2022/01/09 03:54:03;;;;;;;18.13;11.23;;;;;;;;;;5094157;28;20024;-74
2022/01/09 03:56:29;;;;;;;20.85;12.55;;;;;;;;;;5092735;28;20039;-67
2022/01/09 03:58:55;;;;;;;18.52;11.32;;;;;;;;;;5093861;28;20027;-65
2022/01/09 04:01:21;;;;;;;14.70;9.93;;;;;;;;;;5093849;28;20024;-73
2022/01/09 04:03:47;;;;;;;18.45;11.57;;;;;;;;;;5090414;28;20025;-69
2022/01/09 04:06:14;;;;;;;17.52;10.88;;;;;;;;;;5092219;28;20051;-67
2022/01/09 04:08:40;;;;;;;15.75;10.48;;;;;;;;;;5093145;28;20024;-72
2022/01/09 04:11:07;;;;;;;17.80;11.57;;;;;;;;;;5092438;28;20027;-73
2022/01/09 04:13:33;;;;;;;18.45;11.43;;;;;;;;;;5093765;28;20024;-73
2022/01/09 04:16:00;;;;;;;17.67;9.95;;;;;;;;;;5093540;28;20036;-68
2022/01/09 04:18:27;;;;;;;15.25;9.68;;;;;;;;;;5093361;28;20028;-63
2022/01/09 04:20:53;;;;;;;16.70;10.95;;;;;;;;;;5091306;28;20016;-71
2022/01/09 04:23:20;;;;;;;15.00;9.70;;;;;;;;;;5093266;28;20048;-68
2022/01/09 04:25:47;;;;;;;19.13;10.93;;;;;;;;;;5093449;28;20031;-70
2022/01/09 04:28:13;;;;;;;19.27;12.18;;;;;;;;;;5093150;28;20035;-73
2022/01/09 04:30:39;;;;;;;17.00;10.93;;;;;;;;;;5092483;28;20028;-64
2022/01/09 04:33:06;;;;;;;17.92;11.75;;;;;;;;;;5091715;28;20377;-67
2022/01/09 04:35:32;;;;;;;15.00;10.07;;;;;;;;;;5091900;28;20476;-72
2022/01/09 04:37:58;;;;;;;15.57;10.07;;;;;;;;;;5093237;28;20119;-73
2022/01/09 04:40:24;;;;;;;16.15;10.63;;;;;;;;;;5091886;28;20020;-63
2022/01/09 04:42:57;;;;;;;17.98;11.27;;;;;;;;;;5093229;28;20031;-62
2022/01/09 04:45:25;;;;;;;19.00;11.55;;;;;;;;;;5093162;28;20472;-66
2022/01/09 04:47:53;;;;;;;19.52;11.25;;;;;;;;;;5092947;28;20053;-70
2022/01/09 04:50:24;;;;;;;17.25;10.98;;;;;;;;;;5092848;28;20038;-65
2022/01/09 04:52:58;;;;;;;19.08;11.85;;;;;;;;;;5091459;28;20020;-72
2022/01/09 04:55:24;;;;;;;17.83;11.52;;;;;;;;;;5092759;28;20088;-66
2022/01/09 04:57:50;;;;;;;20.13;12.65;;;;;;;;;;5092693;28;20031;-63
2022/01/09 05:00:16;;;;;;;17.88;11.88;;;;;;;;;;5092675;28;20012;-62
2022/01/09 05:02:42;;;;;;;19.38;12.43;;;;;;;;;;5082058;28;20030;-68
2022/01/09 05:05:09;;;;;;;19.15;12.35;;;;;;;;;;5072206;28;20028;-66
2022/01/09 05:07:35;;;;;;;20.70;12.63;;;;;;;;;;5072167;28;20058;-65
2022/01/09 05:10:02;;;;;;;19.98;12.50;;;;;;;;;;5072405;28;20086;-67
2022/01/09 05:12:28;;;;;;;19.63;11.85;;;;;;;;;;5072266;28;20504;-67
2022/01/09 05:14:54;;;;;;;17.77;11.73;;;;;;;;;;5071098;28;20405;-68
2022/01/09 05:17:20;;;;;;;18.02;10.80;;;;;;;;;;5072229;28;20029;-71
2022/01/09 05:19:47;;;;;;;19.30;13.00;;;;;;;;;;5070965;28;20024;-67
2022/01/09 05:22:13;;;;;;;17.67;12.25;;;;;;;;;;5072305;28;20103;-70
2022/01/09 05:24:39;;;;;;;19.02;12.57;;;;;;;;;;5071678;28;20124;-71
2022/01/09 05:27:06;;;;;;;18.65;13.07;;;;;;;;;;5071887;28;20428;-71
2022/01/09 05:29:32;;;;;;;15.68;10.98;;;;;;;;;;5071947;28;20056;-73
2022/01/09 05:31:58;;;;;;;18.55;11.35;;;;;;;;;;5071191;28;20021;-71
2022/01/09 05:34:24;;;;;;;16.42;10.88;;;;;;;;;;5071907;28;20028;-65
2022/01/09 05:36:50;;;;;;;18.15;12.15;;;;;;;;;;5071784;28;20561;-73
2022/01/09 05:39:16;;;;;;;18.67;11.40;;;;;;;;;;5071718;28;20048;-70
2022/01/09 05:41:43;;;;;;;18.20;11.25;;;;;;;;;;5070248;28;20405;-74
2022/01/09 05:44:09;;;;;;;16.85;11.13;;;;;;;;;;5071687;28;20017;-73
2022/01/09 05:46:35;;;;;;;18.48;11.27;;;;;;;;;;5071693;28;20020;-70
2022/01/09 05:49:01;;;;;;;17.52;10.82;;;;;;;;;;5071494;28;20027;-69
2022/01/09 05:51:27;;;;;;;16.77;11.20;;;;;;;;;;5071552;28;20025;-71
2022/01/09 05:53:53;;;;;;;15.18;9.95;;;;;;;;;;5071675;28;20515;-72
2022/01/09 05:56:19;;;;;;;17.83;10.75;;;;;;;;;;5071271;28;20564;-73
2022/01/09 05:58:46;;;;;;;18.58;11.32;;;;;;;;;;5071564;28;20025;-73
2022/01/09 06:01:12;;;;;;;17.00;10.52;;;;;;;;;;5071491;28;20031;-75
2022/01/09 06:03:38;;;;;;;16.75;10.43;;;;;;;;;;5071533;28;20028;-75
2022/01/09 06:06:04;;;;;;;15.57;10.50;;;;;;;;;;5071409;28;20025;-74
2022/01/09 06:08:30;;;;;;;16.08;10.48;;;;;;;;;;5071486;28;20027;-65
2022/01/09 06:10:56;;;;;;;15.48;10.15;;;;;;;;;;5071404;28;20103;-71
2022/01/09 06:13:22;;;;;;;19.00;11.73;;;;;;;;;;5071588;28;20082;-67
2022/01/09 06:15:48;;;;;;;17.98;10.27;;;;;;;;;;5071255;28;20036;-74
2022/01/09 06:18:18;;;;;;;18.65;11.52;;;;;;;;;;5071395;28;20093;-72
2022/01/09 06:20:44;;;;;;;19.40;11.85;;;;;;;;;;5071414;28;20025;-75
2022/01/09 06:23:10;;;;;;;18.50;12.10;;;;;;;;;;5071224;28;20041;-65
2022/01/09 06:25:36;;;;;;;18.40;10.88;;;;;;;;;;5071307;28;20139;-66
2022/01/09 06:28:02;;;;;;;15.95;11.10;;;;;;;;;;5071193;28;20025;-73
2022/01/09 06:30:28;;;;;;;15.45;9.90;;;;;;;;;;5071216;28;20024;-74
2022/01/09 06:32:54;;;;;;;19.20;11.90;;;;;;;;;;5071129;28;20098;-71
2022/01/09 06:35:20;;;;;;;15.85;10.90;;;;;;;;;;5071071;28;20028;-67
2022/01/09 06:37:48;;;;;;;15.93;10.70;;;;;;;;;;5071161;28;20027;-75
2022/01/09 06:40:14;;;;;;;15.40;10.05;;;;;;;;;;5071432;28;20032;-69
2022/01/09 06:42:40;;;;;;;15.98;10.98;;;;;;;;;;5072611;28;20024;-62
2022/01/09 06:45:07;;;;;;;16.00;11.25;;;;;;;;;;5075174;28;20048;-71
2022/01/09 06:47:33;;;;;;;18.70;11.88;;;;;;;;;;5074976;28;20028;-75
2022/01/09 06:49:59;;;;;;;17.52;11.35;;;;;;;;;;5073693;28;20631;-69
2022/01/09 06:52:25;;;;;;;18.40;11.40;;;;;;;;;;5074985;28;20028;-66
2022/01/09 06:54:51;;;;;;;16.27;10.57;;;;;;;;;;5074851;28;20055;-62
2022/01/09 06:57:17;;;;;;;19.20;12.27;;;;;;;;;;5074889;28;20034;-68
2022/01/09 06:59:44;;;;;;;17.77;11.38;;;;;;;;;;5074853;28;20099;-68
2022/01/09 07:02:10;;;;;;;19.17;10.90;;;;;;;;;;5076338;28;20039;-72
2022/01/09 07:04:36;;;;;;;17.17;11.32;;;;;;;;;;5094789;28;20024;-68
2022/01/09 07:07:02;;;;;;;15.85;10.95;;;;;;;;;;5094828;28;20024;-68
2022/01/09 07:09:28;;;;;;;15.65;10.43;;;;;;;;;;5093675;28;20522;-73
2022/01/09 07:11:54;;;;;;;17.73;12.40;;;;;;;;;;5094998;28;20020;-64
2022/01/09 07:14:20;;;;;;;16.98;10.93;;;;;;;;;;5095130;28;20556;-69
2022/01/09 07:16:46;;;;;;;17.30;11.00;;;;;;;;;;5094750;28;20039;-74
2022/01/09 07:19:12;;;;;;;16.73;10.93;;;;;;;;;;5093445;28;20114;-69
2022/01/09 07:21:38;;;;;;;16.92;10.60;;;;;;;;;;5094649;28;20024;-69
2022/01/09 07:24:04;;;;;;;18.63;11.80;;;;;;;;;;5094494;28;20044;-70
2022/01/09 07:26:30;;;;;;;13.63;8.23;;;;;;;;;;5094685;28;20528;-75
2022/01/09 07:28:56;;;;;;;17.02;10.48;;;;;;;;;;5093300;28;20061;-73
2022/01/09 07:31:23;;;;;;;16.00;10.20;;;;;;;;;;5093241;28;20161;-70
2022/01/09 07:33:49;;;;;;;16.23;10.55;;;;;;;;;;5094478;28;20016;-74
2022/01/09 07:36:17;;;;;;;16.23;10.32;;;;;;;;;;5094117;28;20510;-72
2022/01/09 07:38:43;;;;;;;16.67;10.25;;;;;;;;;;5094236;28;20489;-74
2022/01/09 07:41:12;;;;;;;14.73;10.38;;;;;;;;;;5094236;28;20026;-73
2022/01/09 07:43:38;;;;;;;17.67;10.68;;;;;;;;;;5094228;28;20023;-70
2022/01/09 07:46:04;;;;;;;19.52;11.85;;;;;;;;;;5094149;28;20032;-65
2022/01/09 07:48:30;;;;;;;16.38;11.18;;;;;;;;;;5094153;28;20020;-69
2022/01/09 07:50:57;;;;;;;20.05;13.27;;;;;;;;;;5094340;28;20024;-72
2022/01/09 07:53:23;;;;;;;16.98;11.07;;;;;;;;;;5092508;28;20020;-69
2022/01/09 07:55:50;;;;;;;19.92;12.85;;;;;;;;;;5093022;28;20036;-71
2022/01/09 07:58:16;;;;;;;16.95;11.27;;;;;;;;;;5094036;28;20020;-74
2022/01/09 08:00:43;;;;;;;16.90;11.43;;;;;;;;;;5093822;28;20549;-75
2022/01/09 08:03:09;;;;;;;20.52;12.35;;;;;;;;;;5093881;28;20024;-67
2022/01/09 08:05:35;;;;;;;22.67;12.70;;;;;;;;;;5093865;28;20027;-74
2022/01/09 08:08:01;;;;;;;17.25;11.32;;;;;;;;;;5094062;28;20028;-71
2022/01/09 08:10:27;;;;;;;18.75;12.52;;;;;;;;;;5093819;28;20020;-71
2022/01/09 08:12:53;;;;;;;22.10;12.50;;;;;;;;;;5093751;28;20020;-73
2022/01/09 08:15:19;;;;;;;19.70;13.27;;;;;;;;;;5093555;28;20024;-71
2022/01/09 08:17:46;;;;;;;22.30;13.27;;;;;;;;;;5093440;28;20473;-75
2022/01/09 08:20:16;;;;;;;22.35;13.80;;;;;;;;;;5093404;28;20024;-72
2022/01/09 08:22:42;;;;;;;19.58;12.98;;;;;;;;;;5093761;28;20048;-69
2022/01/09 08:25:12;;;;;;;22.27;13.52;;;;;;;;;;5093394;28;20485;-65
2022/01/09 08:27:38;;;;;;;19.25;12.38;;;;;;;;;;5093380;28;20027;-72
2022/01/09 08:30:05;;;;;;;19.77;13.18;;;;;;;;;;5093184;28;20476;-71
2022/01/09 08:32:32;;;;;;;21.83;13.68;;;;;;;;;;5093230;28;20043;-75
2022/01/09 08:34:58;;;;;;;20.23;13.60;;;;;;;;;;5091788;28;20032;-74
2022/01/09 08:37:24;;;;;;;20.73;12.48;;;;;;;;;;5093207;28;20031;-73
2022/01/09 08:39:50;;;;;;;19.45;13.02;;;;;;;;;;5093002;28;20016;-73
2022/01/09 08:42:16;;;;;;;21.23;13.48;;;;;;;;;;5092842;28;20035;-74
2022/01/09 08:44:42;;;;;;;20.77;13.20;;;;;;;;;;5092832;28;20072;-67
2022/01/09 08:47:09;;;;;;;20.95;13.70;;;;;;;;;;5091377;28;20489;-65
2022/01/09 08:49:35;;;;;;;22.83;13.35;;;;;;;;;;5091819;28;20595;-71
2022/01/09 08:52:01;;;;;;;20.77;13.35;;;;;;;;;;5093840;28;20018;-71
2022/01/09 08:54:28;;;;;;;19.23;13.30;;;;;;;;;;5093015;28;20018;-63
2022/01/09 08:56:54;;;;;;;18.42;13.18;;;;;;;;;;5093029;28;20440;-63
2022/01/09 08:59:20;;;;;;;20.60;12.90;;;;;;;;;;5091448;28;20384;-64
2022/01/09 09:01:46;;;;;;;20.70;13.48;;;;;;;;;;5092540;28;20046;-72
2022/01/09 09:04:12;;;;;;;21.70;13.40;;;;;;;;;;5090869;28;20035;-71
2022/01/09 09:06:38;;;;;;;18.95;13.35;;;;;;;;;;5092403;28;20028;-70
2022/01/09 09:09:04;;;;;;;20.50;13.15;;;;;;;;;;5092634;28;20055;-75
2022/01/09 09:11:31;;;;;;;24.00;13.50;;;;;;;;;;5092666;28;20030;-67
2022/01/09 09:13:57;;;;;;;19.00;12.65;;;;;;;;;;5092487;28;20028;-67
2022/01/09 09:16:23;;;;;;;22.80;13.75;;;;;;;;;;5092254;28;20036;-72
2022/01/09 09:18:50;;;;;;;21.65;12.93;;;;;;;;;;5092596;28;20021;-69
2022/01/09 09:21:17;;;;;;;17.55;12.40;;;;;;;;;;5092544;28;20103;-74
2022/01/09 09:23:43;;;;;;;18.17;11.93;;;;;;;;;;5092323;28;20040;-67
2022/01/09 09:26:10;;;;;;;18.38;10.50;;;;;;;;;;5092044;28;20043;-69
2022/01/09 09:28:36;;;;;;;18.25;11.65;;;;;;;;;;5092153;28;20027;-74
2022/01/09 09:31:03;;;;;;;17.42;11.43;;;;;;;;;;5092185;28;20028;-67
2022/01/09 09:33:29;;;;;;;16.50;11.52;;;;;;;;;;5092292;28;20070;-72
2022/01/09 09:35:58;;;;;;;16.55;10.77;;;;;;;;;;5092114;28;20063;-68
2022/01/09 09:38:25;;;;;;;19.58;11.93;;;;;;;;;;5092034;28;20093;-69
2022/01/09 09:40:51;;;;;;;18.27;12.13;;;;;;;;;;5092078;28;20458;-75
2022/01/09 09:43:17;;;;;;;18.17;11.82;;;;;;;;;;5090715;28;20031;-75
2022/01/09 09:45:43;;;;;;;18.95;11.57;;;;;;;;;;5091938;28;20046;-64
2022/01/09 09:48:09;;;;;;;23.17;13.25;;;;;;;;;;5091934;28;20499;-74
2022/01/09 09:50:36;;;;;;;20.00;13.77;;;;;;;;;;5091984;28;20027;-75
2022/01/09 09:53:02;;;;;;;17.17;12.23;;;;;;;;;;5091624;28;20519;-75
2022/01/09 09:55:29;;;;;;;19.65;12.73;;;;;;;;;;5091596;28;20115;-73
2022/01/09 09:57:55;;;;;;;19.20;12.95;;;;;;;;;;5091599;28;20333;-75
2022/01/09 10:00:22;;;;;;;19.45;11.35;;;;;;;;;;5091834;28;20024;-72
2022/01/09 10:02:49;;;;;;;17.85;11.73;;;;;;;;;;5091654;28;20024;-75
2022/01/09 10:05:26;;;;;;;18.50;12.82;;;;;;;;;;5090358;28;20027;-75
2022/01/09 10:07:52;;;;;;;20.88;13.10;;;;;;;;;;5091748;28;20032;-73
2022/01/09 10:10:19;;;;;;;20.40;13.98;;;;;;;;;;5091599;28;20507;-76
2022/01/09 10:12:47;;;;;;;21.65;13.70;;;;;;;;;;5091431;28;20028;-74
2022/01/09 10:15:17;;;;;;;18.58;11.85;;;;;;;;;;5091433;28;20115;-75
2022/01/09 10:17:50;;;;;;;19.20;12.30;;;;;;;;;;5089570;28;20028;-71
2022/01/09 10:20:21;;;;;;;20.20;13.07;;;;;;;;;;5091509;28;20473;-75
2022/01/09 10:22:48;;;;;;;19.13;13.13;;;;;;;;;;5090225;28;20526;-75
2022/01/09 10:25:35;;;;;;;19.73;13.10;;;;;;;;;;5091152;28;20473;-74
2022/01/09 10:28:01;;;;;;;22.60;14.38;;;;;;;;;;5091344;28;20497;-69
2022/01/09 10:30:30;;;;;;;18.98;13.23;;;;;;;;;;5091342;28;20497;-75
2022/01/09 10:32:57;;;;;;;19.48;12.50;;;;;;;;;;5091299;28;20043;-75
2022/01/09 10:35:24;;;;;;;20.02;13.27;;;;;;;;;;5091188;28;20032;-71
2022/01/09 10:37:51;;;;;;;18.13;11.68;;;;;;;;;;5091191;28;20016;-75
2022/01/09 10:40:29;;;;;;;20.67;14.25;;;;;;;;;;5089816;28;20472;-72
2022/01/09 10:43:06;;;;;;;23.75;13.90;;;;;;;;;;5091337;28;20064;-74
2022/01/09 10:45:32;;;;;;;16.65;11.90;;;;;;;;;;5091130;28;20046;-75
2022/01/09 10:48:06;;;;;;;17.83;11.77;;;;;;;;;;5090999;28;20058;-74
2022/01/09 10:50:33;;;;;;;17.70;13.00;;;;;;;;;;5091050;28;20028;-75
2022/01/09 10:53:26;;;;;;;17.48;11.52;;;;;;;;;;5089751;28;20543;-76
2022/01/09 10:56:01;;;;;;;20.90;13.52;;;;;;;;;;5086191;28;20055;-75
2022/01/09 10:58:27;;;;;;;19.13;13.10;;;;;;;;;;5089843;28;20036;-75
2022/01/09 11:01:09;;;;;;;18.15;11.10;;;;;;;;;;5091215;28;20070;-66
2022/01/09 11:03:35;;;;;;;17.98;12.35;;;;;;;;;;5079511;28;20108;-69
2022/01/09 11:06:02;;;;;;;17.10;11.98;;;;;;;;;;5070773;28;20029;-75
2022/01/09 11:08:38;;;;;;;19.05;13.30;;;;;;;;;;5069753;28;20020;-74
2022/01/09 11:11:09;;;;;;;16.20;11.40;;;;;;;;;;5070912;28;20020;-74
2022/01/09 11:13:37;;;;;;;19.17;12.35;;;;;;;;;;5069944;28;20021;-75
2022/01/09 11:18:49;;;;;;;17.35;11.30;;;;;;;;;;5071074;28;20040;-73
2022/01/09 11:21:15;;;;;;;14.77;9.98;;;;;;;;;;5070619;28;20028;-70
2022/01/09 11:23:53;;;;;;;20.13;13.43;;;;;;;;;;5070618;28;20032;-75
2022/01/09 11:26:19;;;;;;;17.52;10.57;;;;;;;;;;5070760;28;20104;-75
2022/01/09 11:28:46;;;;;;;16.40;10.85;;;;;;;;;;5070728;28;20024;-72
2022/01/09 11:31:15;;;;;;;18.58;12.68;;;;;;;;;;5074067;28;20070;-72
2022/01/09 11:33:47;;;;;;;16.70;11.05;;;;;;;;;;5074165;28;20052;-76
2022/01/09 11:36:26;;;;;;;14.85;10.10;;;;;;;;;;5072591;28;20036;-75
2022/01/09 11:38:55;;;;;;;18.00;12.18;;;;;;;;;;5074146;28;20025;-75
2022/01/09 11:41:25;;;;;;;14.52;10.68;;;;;;;;;;5074077;28;20021;-72
2022/01/09 11:43:51;;;;;;;16.73;10.60;;;;;;;;;;5073884;28;20028;-74
2022/01/09 11:46:18;;;;;;;17.83;12.85;;;;;;;;;;5072411;28;20020;-71
2022/01/09 11:49:00;;;;;;;15.38;11.00;;;;;;;;;;5073990;28;20027;-75
2022/01/09 11:51:27;;;;;;;;;;;;;;;;;;5074507;28;20020;-74
2022/01/09 11:54:00;;;;;;;15.30;10.18;;;;;;;;;;5073918;28;19904;-74
2022/01/09 11:56:44;;;;;;;15.82;10.68;;;;;;;;;;5073668;28;20056;-70
2022/01/09 11:59:29;;;;;;;19.15;11.27;;;;;;;;;;5073575;28;20131;-75
2022/01/09 12:01:55;;;;;;;17.70;12.27;;;;;;;;;;5072289;28;20044;-73
2022/01/09 12:04:34;;;;;;;18.80;11.82;;;;;;;;;;5073645;28;20063;-75
2022/01/09 12:07:04;;;;;;;16.20;10.38;;;;;;;;;;5073438;28;20036;-68
2022/01/09 12:09:31;;;;;;;17.33;10.88;;;;;;;;;;5073578;28;20021;-74
2022/01/09 12:12:03;;;;;;;17.23;11.13;;;;;;;;;;5073440;28;20048;-73
2022/01/09 12:14:53;;;;;;;20.00;11.13;;;;;;;;;;5073427;28;20504;-75
2022/01/09 12:17:26;;;;;;;15.18;10.25;;;;;;;;;;5073308;28;20477;-70
2022/01/09 12:19:52;;;;;;;;;;;;;;;;;;5086310;28;20754;-74
2022/01/09 12:22:38;;;;;;;17.30;10.63;;;;;;;;;;5073150;28;19908;-66
2022/01/09 12:25:04;;;;;;;16.20;10.65;;;;;;;;;;5081074;28;20063;-76
2022/01/09 12:27:38;;;;;;;15.80;11.07;;;;;;;;;;5092878;28;20107;-72
2022/01/09 12:30:04;;;;;;;17.52;10.95;;;;;;;;;;5092128;28;20020;-74
2022/01/09 12:32:44;;;;;;;14.88;10.13;;;;;;;;;;5092946;28;20016;-75
2022/01/09 12:35:18;;;;;;;15.52;9.48;;;;;;;;;;5092777;28;20082;-76
2022/01/09 12:37:48;;;;;;;15.45;10.77;;;;;;;;;;5074487;28;20020;-71
2022/01/09 12:40:18;;;;;;;17.05;11.30;;;;;;;;;;5072059;28;20016;-70
2022/01/09 12:42:50;;;;;;;17.25;9.93;;;;;;;;;;5071187;28;20029;-75
2022/01/09 12:45:19;;;;;;;14.23;9.50;;;;;;;;;;5073020;28;20335;-75
2022/01/09 12:47:45;;;;;;;16.63;10.27;;;;;;;;;;5073313;28;20028;-75
2022/01/09 12:50:11;;;;;;;15.43;10.45;;;;;;;;;;5072626;28;20052;-75
2022/01/09 12:52:38;;;;;;;14.35;10.00;;;;;;;;;;5071146;28;20021;-74
2022/01/09 12:55:05;;;;;;;16.25;10.43;;;;;;;;;;5072542;28;20088;-74
2022/01/09 12:57:31;;;;;;;14.90;10.52;;;;;;;;;;5072587;28;20108;-76
2022/01/09 12:59:58;;;;;;;17.42;9.80;;;;;;;;;;5081321;28;20020;-69
2022/01/09 13:02:24;;;;;;;18.23;10.27;;;;;;;;;;5077566;28;20124;-76
2022/01/09 13:04:50;;;;;;;17.38;11.05;;;;;;;;;;5085512;28;20027;-73
2022/01/09 13:07:16;;;;;;;14.02;9.40;;;;;;;;;;5091573;28;20111;-75
2022/01/09 13:09:43;;;;;;;15.13;10.43;;;;;;;;;;5092345;28;20017;-76
2022/01/09 13:12:09;;;;;;;19.42;11.32;;;;;;;;;;5092387;28;20031;-74
2022/01/09 13:14:39;;;;;;;16.08;10.85;;;;;;;;;;5072537;28;20024;-75
2022/01/09 13:17:05;;;;;;;14.80;10.07;;;;;;;;;;5071863;28;20120;-76
2022/01/09 13:19:34;;;;;;;17.52;11.88;;;;;;;;;;5072283;28;20029;-72
2022/01/09 13:22:05;;;;;;;17.38;10.88;;;;;;;;;;5071365;28;20021;-76
2022/01/09 13:24:31;;;;;;;15.35;10.52;;;;;;;;;;5071758;28;20052;-71
2022/01/09 13:26:58;;;;;;;16.33;10.77;;;;;;;;;;5072256;28;20021;-68
2022/01/09 13:29:29;;;;;;;13.85;9.55;;;;;;;;;;5070534;28;20619;-72
2022/01/09 13:31:59;;;;;;;15.30;9.48;;;;;;;;;;5071804;28;20115;-75
2022/01/09 13:34:32;;;;;;;17.05;10.73;;;;;;;;;;5070537;28;20029;-76
2022/01/09 13:37:00;;;;;;;16.27;10.38;;;;;;;;;;5071547;28;20028;-71
2022/01/09 13:39:27;;;;;;;15.30;10.05;;;;;;;;;;5070581;28;20443;-73
2022/01/09 13:41:56;;;;;;;15.60;10.38;;;;;;;;;;5071660;28;20074;-71
2022/01/09 13:44:26;;;;;;;17.80;10.80;;;;;;;;;;5071754;28;20025;-74
2022/01/09 13:46:59;;;;;;;16.15;10.40;;;;;;;;;;5071492;28;20103;-73
2022/01/09 13:49:25;;;;;;;15.13;10.27;;;;;;;;;;5071808;28;20358;-65
2022/01/09 13:51:51;;;;;;;16.90;10.85;;;;;;;;;;5070958;28;20048;-71
2022/01/09 13:54:19;;;;;;;15.18;10.00;;;;;;;;;;5070165;28;20484;-73
2022/01/09 13:56:58;;;;;;;14.77;9.60;;;;;;;;;;5091270;28;20040;-76
2022/01/09 13:59:33;;;;;;;14.35;9.55;;;;;;;;;;5091576;28;20016;-75
2022/01/09 14:01:59;;;;;;;16.50;9.63;;;;;;;;;;5091419;28;20035;-74
2022/01/09 14:04:25;;;;;;;15.93;9.98;;;;;;;;;;5091458;28;20027;-75
2022/01/09 14:06:55;;;;;;;17.52;11.73;;;;;;;;;;5091543;28;20565;-70
2022/01/09 14:09:25;;;;;;;14.93;9.40;;;;;;;;;;5091266;28;20073;-71
2022/01/09 14:12:02;;;;;;;17.80;11.63;;;;;;;;;;5086897;28;20024;-69
2022/01/09 14:14:29;;;;;;;18.13;11.45;;;;;;;;;;5071037;28;20042;-68
2022/01/09 14:16:55;;;;;;;15.93;10.05;;;;;;;;;;5070682;28;20045;-73
2022/01/09 14:19:21;;;;;;;18.13;11.70;;;;;;;;;;5070987;28;20024;-73
2022/01/09 14:21:52;;;;;;;13.65;9.05;;;;;;;;;;5070821;28;20099;-69
2022/01/09 14:24:18;;;;;;;14.48;10.07;;;;;;;;;;5071006;28;20393;-75
2022/01/09 14:26:55;;;;;;;15.93;9.88;;;;;;;;;;5070815;28;20385;-74
2022/01/09 14:29:33;;;;;;;13.52;9.52;;;;;;;;;;5071676;28;20016;-75